createdAt,value
2022-09-11T00:01:33.416Z,13.55
2022-09-11T00:04:39.298Z,13.62
2022-09-11T00:07:48.382Z,13.65
2022-09-11T00:10:54.694Z,13.70
2022-09-11T00:14:01.049Z,13.70
2022-09-11T00:17:07.770Z,13.72
2022-09-11T00:20:19.103Z,13.75
2022-09-11T00:23:25.421Z,13.77
2022-09-11T00:26:31.110Z,13.80
2022-09-11T00:29:37.652Z,13.80
2022-09-11T00:32:43.925Z,13.82
2022-09-11T00:35:49.793Z,13.82
2022-09-11T00:38:56.388Z,13.81
2022-09-11T00:42:02.335Z,13.80
2022-09-11T00:45:09.503Z,13.80
2022-09-11T00:48:34.163Z,13.79
2022-09-11T00:51:41.192Z,13.75
2022-09-11T00:54:49.696Z,13.71
2022-09-11T00:57:55.195Z,13.67
2022-09-11T01:01:01.023Z,13.70
2022-09-11T01:04:07.090Z,13.75
2022-09-11T01:07:12.592Z,13.80
2022-09-11T01:10:19.082Z,13.82
2022-09-11T01:13:25.605Z,13.78
2022-09-11T01:16:32.063Z,13.78
2022-09-11T01:19:38.906Z,13.78
2022-09-11T01:22:45.224Z,13.79
2022-09-11T01:25:57.079Z,13.78
2022-09-11T01:29:03.024Z,13.79
2022-09-11T01:32:09.458Z,13.77
2022-09-11T01:35:14.913Z,13.76
2022-09-11T01:38:21.332Z,13.74
2022-09-11T01:41:27.916Z,13.74
2022-09-11T01:44:33.516Z,13.73
2022-09-11T01:47:40.332Z,13.69
2022-09-11T01:50:46.037Z,13.65
2022-09-11T01:53:51.836Z,13.64
2022-09-11T01:56:57.701Z,13.65
2022-09-11T02:00:08.421Z,13.67
2022-09-11T02:03:17.471Z,13.67
2022-09-11T02:06:23.014Z,13.64
2022-09-11T02:09:29.379Z,13.61
2022-09-11T02:12:35.450Z,13.55
2022-09-11T02:15:41.168Z,13.49
2022-09-11T02:18:47.723Z,13.50
2022-09-11T02:21:54.233Z,13.54
2022-09-11T02:25:02.657Z,13.54
2022-09-11T02:28:23.289Z,13.55
2022-09-11T02:31:29.411Z,13.56
2022-09-11T02:34:36.751Z,13.57
2022-09-11T02:37:42.964Z,13.60
2022-09-11T02:40:49.096Z,13.65
2022-09-11T02:43:54.921Z,13.69
2022-09-11T02:47:01.152Z,13.73
2022-09-11T02:50:12.743Z,13.74
2022-09-11T02:53:18.500Z,13.71
2022-09-11T02:56:24.252Z,13.69
2022-09-11T02:59:30.229Z,13.70
2022-09-11T03:02:37.610Z,13.71
2022-09-11T03:05:44.327Z,13.70
2022-09-11T03:08:49.753Z,13.71
2022-09-11T03:11:56.298Z,13.70
2022-09-11T03:15:03.003Z,13.73
2022-09-11T03:18:08.541Z,13.77
2022-09-11T03:21:15.366Z,13.82
2022-09-11T03:24:20.908Z,13.86
2022-09-11T03:27:27.802Z,13.94
2022-09-11T03:30:33.353Z,13.95
2022-09-11T03:33:38.650Z,13.98
2022-09-11T03:36:44.701Z,13.97
2022-09-11T03:39:54.809Z,13.94
2022-09-11T03:43:03.802Z,13.93
2022-09-11T03:46:09.814Z,13.90
2022-09-11T03:49:16.397Z,13.91
2022-09-11T03:52:23.137Z,13.88
2022-09-11T03:55:31.789Z,13.85
2022-09-11T03:58:38.307Z,13.85
2022-09-11T04:01:51.019Z,13.85
2022-09-11T04:04:56.974Z,13.84
2022-09-11T04:08:03.013Z,13.83
2022-09-11T04:11:10.110Z,13.85
2022-09-11T04:14:16.849Z,13.86
2022-09-11T04:17:22.670Z,13.86
2022-09-11T04:20:31.088Z,13.87
2022-09-11T04:23:37.261Z,13.86
2022-09-11T04:26:42.672Z,13.86
2022-09-11T04:29:48.368Z,13.86
2022-09-11T04:32:54.097Z,13.85
2022-09-11T04:36:01.078Z,13.90
2022-09-11T04:39:07.283Z,13.90
2022-09-11T04:42:13.499Z,13.89
2022-09-11T04:45:19.431Z,13.89
2022-09-11T04:48:25.023Z,13.87
2022-09-11T04:51:32.881Z,13.86
2022-09-11T04:54:39.670Z,13.85
2022-09-11T04:57:46.156Z,13.85
2022-09-11T05:00:52.075Z,13.86
2022-09-11T05:04:01.928Z,13.85
2022-09-11T05:07:07.292Z,13.80
2022-09-11T05:10:13.596Z,13.75
2022-09-11T05:13:19.990Z,13.73
2022-09-11T05:16:27.147Z,13.78
2022-09-11T05:19:32.508Z,13.84
2022-09-11T05:22:38.118Z,13.89
2022-09-11T05:25:50.981Z,13.95
2022-09-11T05:28:57.511Z,13.93
2022-09-11T05:32:03.803Z,13.91
2022-09-11T05:35:09.072Z,13.94
2022-09-11T05:38:14.914Z,14.00
2022-09-11T05:41:21.772Z,14.06
2022-09-11T05:44:27.655Z,14.13
2022-09-11T05:47:33.549Z,14.17
2022-09-11T05:50:38.943Z,14.22
2022-09-11T05:53:46.244Z,14.25
2022-09-11T05:56:52.800Z,14.31
2022-09-11T05:59:59.603Z,14.30
2022-09-11T06:03:05.653Z,14.34
2022-09-11T06:06:10.936Z,14.40
2022-09-11T06:09:16.676Z,14.47
2022-09-11T06:12:22.515Z,14.56
2022-09-11T06:15:45.613Z,14.62
2022-09-11T06:18:54.856Z,14.68
2022-09-11T06:22:00.532Z,14.74
2022-09-11T06:25:06.442Z,14.84
2022-09-11T06:28:12.666Z,14.82
2022-09-11T06:31:19.065Z,14.81
2022-09-11T06:34:24.491Z,14.82
2022-09-11T06:37:29.782Z,14.78
2022-09-11T06:40:36.653Z,14.79
2022-09-11T06:43:42.790Z,14.84
2022-09-11T06:46:50.830Z,14.95
2022-09-11T06:49:57.149Z,15.00
2022-09-11T06:53:07.550Z,14.98
2022-09-11T06:56:13.506Z,15.05
2022-09-11T06:59:23.892Z,15.12
2022-09-11T07:02:30.307Z,15.15
2022-09-11T07:05:35.917Z,15.24
2022-09-11T07:08:41.827Z,15.25
2022-09-11T07:11:47.145Z,15.26
2022-09-11T07:14:53.343Z,15.25
2022-09-11T07:17:59.928Z,15.24
2022-09-11T07:21:06.916Z,15.30
2022-09-11T07:24:14.274Z,15.37
2022-09-11T07:27:28.325Z,15.36
2022-09-11T07:30:35.440Z,15.39
2022-09-11T07:33:44.183Z,15.43
2022-09-11T07:36:53.241Z,15.44
2022-09-11T07:39:58.717Z,15.41
2022-09-11T07:43:18.430Z,15.46
2022-09-11T07:46:24.488Z,15.58
2022-09-11T07:49:30.418Z,15.78
2022-09-11T07:52:36.800Z,15.95
2022-09-11T07:55:43.677Z,16.03
2022-09-11T07:58:50.108Z,16.08
2022-09-11T08:01:56.689Z,16.12
2022-09-11T08:05:03.604Z,16.10
2022-09-11T08:08:09.425Z,16.10
2022-09-11T08:11:15.394Z,16.10
2022-09-11T08:14:25.818Z,16.15
2022-09-11T08:17:31.708Z,16.24
2022-09-11T08:20:37.508Z,16.25
2022-09-11T08:23:43.452Z,16.34
2022-09-11T08:26:49.413Z,16.45
2022-09-11T08:29:56.239Z,16.51
2022-09-11T08:33:02.656Z,16.45
2022-09-11T08:36:08.455Z,16.40
2022-09-11T08:39:14.228Z,16.30
2022-09-11T08:42:23.649Z,16.19
2022-09-11T08:45:29.990Z,15.95
2022-09-11T08:48:37.102Z,15.89
2022-09-11T08:51:44.913Z,15.85
2022-09-11T08:54:51.061Z,15.84
2022-09-11T08:57:56.831Z,15.76
2022-09-11T09:01:08.689Z,15.70
2022-09-11T09:04:14.801Z,15.58
2022-09-11T09:07:20.355Z,15.49
2022-09-11T09:10:26.718Z,15.40
2022-09-11T09:13:32.580Z,15.25
2022-09-11T09:16:39.385Z,15.14
2022-09-11T09:19:46.674Z,15.10
2022-09-11T09:22:56.294Z,15.11
2022-09-11T09:26:02.266Z,15.09
2022-09-11T09:29:08.350Z,15.09
2022-09-11T09:32:15.507Z,15.15
2022-09-11T09:35:21.560Z,15.19
2022-09-11T09:38:27.684Z,15.15
2022-09-11T09:41:33.257Z,15.17
2022-09-11T09:44:39.202Z,15.24
2022-09-11T09:47:46.061Z,15.29
2022-09-11T09:50:53.036Z,15.29
2022-09-11T09:53:59.078Z,15.33
2022-09-11T09:57:05.132Z,15.33
2022-09-11T10:00:11.281Z,15.37
2022-09-11T10:03:16.566Z,15.41
2022-09-11T10:06:23.702Z,15.47
2022-09-11T10:09:29.670Z,15.60
2022-09-11T10:12:36.031Z,15.72
2022-09-11T10:15:43.199Z,15.77
2022-09-11T10:18:58.159Z,15.76
2022-09-11T10:22:04.586Z,15.75
2022-09-11T10:25:10.770Z,15.70
2022-09-11T10:28:16.338Z,15.65
2022-09-11T10:31:22.990Z,15.62
2022-09-11T10:34:28.469Z,15.63
2022-09-11T10:37:34.448Z,15.70
2022-09-11T10:40:41.385Z,15.70
2022-09-11T10:43:47.480Z,15.68
2022-09-11T10:46:53.232Z,15.74
2022-09-11T10:49:58.495Z,15.86
2022-09-11T10:53:06.385Z,15.96
2022-09-11T10:56:12.198Z,16.09
2022-09-11T10:59:18.934Z,16.19
2022-09-11T11:02:24.209Z,16.19
2022-09-11T11:05:29.857Z,16.22
2022-09-11T11:08:36.020Z,16.30
2022-09-11T11:11:41.899Z,16.32
2022-09-11T11:14:48.250Z,16.33
2022-09-11T11:17:56.703Z,16.39
2022-09-11T11:21:02.933Z,16.57
2022-09-11T11:24:08.677Z,16.68
2022-09-11T11:27:14.270Z,16.76
2022-09-11T11:30:23.348Z,16.77
2022-09-11T11:33:29.409Z,16.72
2022-09-11T11:36:35.052Z,16.74
2022-09-11T11:39:41.328Z,16.84
2022-09-11T11:42:51.616Z,17.02
2022-09-11T11:46:02.353Z,17.11
2022-09-11T11:49:09.102Z,17.14
2022-09-11T11:52:30.227Z,17.09
2022-09-11T11:55:36.781Z,17.13
2022-09-11T11:58:42.942Z,17.16
2022-09-11T12:01:49.352Z,17.17
2022-09-11T12:04:55.428Z,17.27
2022-09-11T12:08:01.145Z,17.34
2022-09-11T12:11:08.228Z,17.31
2022-09-11T12:14:13.932Z,17.31
2022-09-11T12:17:19.433Z,17.39
2022-09-11T12:20:24.977Z,17.44
2022-09-11T12:23:30.649Z,17.45
2022-09-11T12:26:37.571Z,17.58
2022-09-11T12:29:43.995Z,17.67
2022-09-11T12:32:49.900Z,17.84
2022-09-11T12:35:55.736Z,17.97
2022-09-11T12:39:01.448Z,18.01
2022-09-11T12:42:07.553Z,18.05
2022-09-11T12:45:13.233Z,18.00
2022-09-11T12:48:18.650Z,18.06
2022-09-11T12:51:24.324Z,17.93
2022-09-11T12:54:30.188Z,17.77
2022-09-11T12:57:36.395Z,17.66
2022-09-11T13:00:42.474Z,17.59
2022-09-11T13:03:49.540Z,17.65
2022-09-11T13:06:56.304Z,17.68
2022-09-11T13:10:02.174Z,17.72
2022-09-11T13:13:09.216Z,17.71
2022-09-11T13:16:15.253Z,17.76
2022-09-11T13:19:22.232Z,17.87
2022-09-11T13:22:28.017Z,17.83
2022-09-11T13:25:33.586Z,17.85
2022-09-11T13:28:39.737Z,17.86
2022-09-11T13:31:45.274Z,17.80
2022-09-11T13:34:50.865Z,17.73
2022-09-11T13:37:57.160Z,17.70
2022-09-11T13:41:04.388Z,17.65
2022-09-11T13:44:11.060Z,17.76
2022-09-11T13:47:18.077Z,17.94
2022-09-11T13:50:24.567Z,18.07
2022-09-11T13:53:30.329Z,18.21
2022-09-11T13:56:35.881Z,18.31
2022-09-11T13:59:43.203Z,18.39
2022-09-11T14:02:49.575Z,18.50
2022-09-11T14:05:56.314Z,18.43
2022-09-11T14:09:03.020Z,18.34
2022-09-11T14:12:17.986Z,18.32
2022-09-11T14:15:25.330Z,18.17
2022-09-11T14:18:31.193Z,18.10
2022-09-11T14:21:36.887Z,18.07
2022-09-11T14:24:44.950Z,18.11
2022-09-11T14:27:50.753Z,18.21
2022-09-11T14:30:58.205Z,18.32
2022-09-11T14:34:06.918Z,18.40
2022-09-11T14:37:12.567Z,18.43
2022-09-11T14:40:19.541Z,18.47
2022-09-11T14:43:32.888Z,18.51
2022-09-11T14:46:39.497Z,18.51
2022-09-11T14:49:45.386Z,18.53
2022-09-11T14:52:51.403Z,18.61
2022-09-11T14:55:57.179Z,18.63
2022-09-11T14:59:03.266Z,18.59
2022-09-11T15:02:09.525Z,18.65
2022-09-11T15:05:15.680Z,18.76
2022-09-11T15:08:21.816Z,18.86
2022-09-11T15:11:27.761Z,18.88
2022-09-11T15:14:58.202Z,18.91
2022-09-11T15:18:05.279Z,18.88
2022-09-11T15:21:11.851Z,18.90
2022-09-11T15:24:17.406Z,18.82
2022-09-11T15:27:25.243Z,18.83
2022-09-11T15:30:30.693Z,18.83
2022-09-11T15:33:37.089Z,18.85
2022-09-11T15:36:45.455Z,18.94
2022-09-11T15:39:51.502Z,19.50
2022-09-11T15:42:59.551Z,20.93
2022-09-11T15:46:07.020Z,21.79
2022-09-11T15:49:14.056Z,22.52
2022-09-11T15:52:21.291Z,23.23
2022-09-11T15:55:30.228Z,23.70
2022-09-11T15:58:36.917Z,23.78
2022-09-11T16:01:42.793Z,24.11
2022-09-11T16:04:53.027Z,24.35
2022-09-11T16:08:00.106Z,24.52
2022-09-11T16:11:06.395Z,24.71
2022-09-11T16:14:12.074Z,24.87
2022-09-11T16:17:23.360Z,24.92
2022-09-11T16:20:31.393Z,24.93
2022-09-11T16:23:38.524Z,24.92
2022-09-11T16:26:45.001Z,24.83
2022-09-11T16:30:20.625Z,24.68
2022-09-11T16:33:16.537Z,24.48
2022-09-11T16:36:23.790Z,24.22
2022-09-11T16:39:29.530Z,24.00
2022-09-11T16:42:35.475Z,23.68
2022-09-11T16:45:41.559Z,23.52
2022-09-11T16:48:51.914Z,23.25
2022-09-11T16:52:00.411Z,22.42
2022-09-11T16:55:06.472Z,21.53
2022-09-11T16:58:12.697Z,20.68
2022-09-11T17:01:18.783Z,19.91
2022-09-11T17:04:25.981Z,19.22
2022-09-11T17:07:32.250Z,18.60
2022-09-11T17:10:38.600Z,18.06
2022-09-11T17:13:44.780Z,17.56
2022-09-11T17:16:50.348Z,17.15
2022-09-11T17:19:58.401Z,16.81
2022-09-11T17:23:04.460Z,16.53
2022-09-11T17:26:14.787Z,16.25
2022-09-11T17:29:20.761Z,16.03
2022-09-11T17:32:28.542Z,15.82
2022-09-11T17:35:35.204Z,15.62
2022-09-11T17:38:41.293Z,15.45
2022-09-11T17:41:47.285Z,15.26
2022-09-11T17:44:52.782Z,15.07
2022-09-11T17:48:22.077Z,14.88
2022-09-11T17:51:27.979Z,14.64
2022-09-11T17:54:34.137Z,14.45
2022-09-11T17:57:40.776Z,14.27
2022-09-11T18:00:46.263Z,14.13
2022-09-11T18:03:52.991Z,14.00
2022-09-11T18:07:02.049Z,13.90
2022-09-11T18:10:08.178Z,13.81
2022-09-11T18:13:14.476Z,13.72
2022-09-11T18:16:20.230Z,13.64
2022-09-11T18:19:25.568Z,13.55
2022-09-11T18:22:34.691Z,13.44
2022-09-11T18:25:40.880Z,13.35
2022-09-11T18:28:49.240Z,13.25
2022-09-11T18:32:00.189Z,13.16
2022-09-11T18:35:06.157Z,13.08
2022-09-11T18:38:12.833Z,12.98
2022-09-11T18:41:18.975Z,12.93
2022-09-11T18:44:36.596Z,12.90
2022-09-11T18:47:43.622Z,12.84
2022-09-11T18:50:48.978Z,12.79
2022-09-11T18:53:54.388Z,12.72
2022-09-11T18:57:02.602Z,12.65
2022-09-11T19:00:09.432Z,12.57
2022-09-11T19:03:18.266Z,12.49
2022-09-11T19:06:27.065Z,12.44
2022-09-11T19:09:32.341Z,12.38
2022-09-11T19:12:38.460Z,12.31
2022-09-11T19:15:44.201Z,12.25
2022-09-11T19:18:49.885Z,12.22
2022-09-11T19:21:55.824Z,12.17
2022-09-11T19:25:01.256Z,12.11
2022-09-11T19:28:07.145Z,12.05
2022-09-11T19:31:12.554Z,12.00
2022-09-11T19:34:18.293Z,11.95
2022-09-11T19:37:24.511Z,11.91
2022-09-11T19:40:30.265Z,11.88
2022-09-11T19:43:36.644Z,11.83
2022-09-11T19:46:43.165Z,11.75
2022-09-11T19:49:49.543Z,11.68
2022-09-11T19:52:55.265Z,11.61
2022-09-11T19:56:03.705Z,11.55
2022-09-11T19:59:11.168Z,11.50
2022-09-11T20:02:18.164Z,11.44
2022-09-11T20:05:23.716Z,11.41
2022-09-11T20:08:30.777Z,11.37
2022-09-11T20:11:38.256Z,11.33
2022-09-11T20:14:44.452Z,11.26
2022-09-11T20:17:49.956Z,11.21
2022-09-11T20:20:57.333Z,11.15
2022-09-11T20:24:02.935Z,11.09
2022-09-11T20:27:08.662Z,11.01
2022-09-11T20:30:14.868Z,10.96
2022-09-11T20:33:21.254Z,10.91
2022-09-11T20:36:30.277Z,10.86
2022-09-11T20:39:39.424Z,10.80
2022-09-11T20:42:45.265Z,10.78
2022-09-11T20:45:51.699Z,10.75
2022-09-11T20:48:57.458Z,10.70
2022-09-11T20:52:03.873Z,10.65
2022-09-11T20:55:09.587Z,10.62
2022-09-11T20:58:15.835Z,10.57
2022-09-11T21:01:23.123Z,10.51
2022-09-11T21:04:29.581Z,10.45
2022-09-11T21:07:35.671Z,10.40
2022-09-11T21:10:43.520Z,10.35
2022-09-11T21:13:49.235Z,10.31
2022-09-11T21:16:55.194Z,10.27
2022-09-11T21:20:01.114Z,10.22
2022-09-11T21:23:07.062Z,10.18
2022-09-11T21:26:14.926Z,10.12
2022-09-11T21:29:20.719Z,10.07
2022-09-11T21:32:39.762Z,10.04
2022-09-11T21:35:45.980Z,10.00
2022-09-11T21:38:51.877Z,9.93
2022-09-11T21:41:58.967Z,9.90
2022-09-11T21:45:05.077Z,9.86
2022-09-11T21:48:12.932Z,9.83
2022-09-11T21:51:20.193Z,9.82
2022-09-11T21:54:31.242Z,9.76
2022-09-11T21:57:37.374Z,9.75
2022-09-11T22:00:43.606Z,9.74
2022-09-11T22:03:49.567Z,9.75
2022-09-11T22:06:55.905Z,9.74
2022-09-11T22:10:02.273Z,9.76
2022-09-11T22:13:08.768Z,9.76
2022-09-11T22:16:14.006Z,9.75
2022-09-11T22:19:20.278Z,9.75
2022-09-11T22:22:28.551Z,9.70
2022-09-11T22:25:39.663Z,9.66
2022-09-11T22:28:45.681Z,9.66
2022-09-11T22:31:51.311Z,9.63
2022-09-11T22:34:57.714Z,9.59
2022-09-11T22:38:03.613Z,9.55
2022-09-11T22:41:09.312Z,9.53
2022-09-11T22:44:15.037Z,9.48
2022-09-11T22:47:21.440Z,9.45
2022-09-11T22:50:27.521Z,9.40
2022-09-11T22:53:33.362Z,9.40
2022-09-11T22:56:39.336Z,9.38
2022-09-11T22:59:45.383Z,9.34
2022-09-11T23:02:50.652Z,9.29
2022-09-11T23:06:14.270Z,9.26
2022-09-11T23:09:20.446Z,9.22
2022-09-11T23:12:26.499Z,9.18
2022-09-11T23:15:32.020Z,9.14
2022-09-11T23:18:37.710Z,9.10
2022-09-11T23:21:48.190Z,9.04
2022-09-11T23:24:54.342Z,9.00
2022-09-11T23:28:01.255Z,8.95
2022-09-11T23:31:06.740Z,8.91
2022-09-11T23:34:12.378Z,8.90
2022-09-11T23:37:21.257Z,8.90
2022-09-11T23:40:31.379Z,8.91
2022-09-11T23:43:38.989Z,8.86
2022-09-11T23:46:44.757Z,8.81
2022-09-11T23:49:50.568Z,8.79
2022-09-11T23:53:00.346Z,8.78
2022-09-11T23:56:06.242Z,8.77
2022-09-11T23:59:12.219Z,8.74
